createdAt,value
2023-04-17T00:00:51.281Z,80.04
2023-04-17T00:03:19.676Z,79.77
2023-04-17T00:05:48.962Z,79.69
2023-04-17T00:08:17.462Z,79.67
2023-04-17T00:10:53.792Z,80.22
2023-04-17T00:13:28.814Z,80.07
2023-04-17T00:15:58.713Z,79.67
2023-04-17T00:18:27.112Z,80.09
2023-04-17T00:20:56.673Z,79.88
2023-04-17T00:23:25.163Z,80.38
2023-04-17T00:25:53.549Z,79.98
2023-04-17T00:28:21.868Z,79.91
2023-04-17T00:30:50.205Z,80.29
2023-04-17T00:33:19.888Z,79.70
2023-04-17T00:35:48.388Z,79.75
2023-04-17T00:38:16.839Z,79.59
2023-04-17T00:40:46.339Z,80.85
2023-04-17T00:43:14.769Z,79.77
2023-04-17T00:45:43.334Z,79.50
2023-04-17T00:48:13.537Z,79.89
2023-04-17T00:50:43.830Z,79.76
2023-04-17T00:53:12.689Z,80.09
2023-04-17T00:55:42.333Z,79.68
2023-04-17T00:58:12.087Z,79.27
2023-04-17T01:00:40.654Z,80.30
2023-04-17T01:03:09.266Z,80.28
2023-04-17T01:05:38.454Z,80.46
2023-04-17T01:08:08.705Z,80.13
2023-04-17T01:10:37.087Z,79.99
2023-04-17T01:13:07.073Z,80.26
2023-04-17T01:15:37.276Z,79.46
2023-04-17T01:18:07.222Z,80.05
2023-04-17T01:20:35.853Z,80.51
2023-04-17T01:23:04.375Z,80.38
2023-04-17T01:25:34.276Z,79.75
2023-04-17T01:28:02.627Z,80.13
2023-04-17T01:30:31.584Z,79.73
2023-04-17T01:33:06.611Z,79.75
2023-04-17T01:35:35.071Z,79.80
2023-04-17T01:38:03.477Z,80.12
2023-04-17T01:40:33.259Z,79.47
2023-04-17T01:43:01.954Z,80.02
2023-04-17T01:45:30.397Z,80.01
2023-04-17T01:48:00.905Z,79.74
2023-04-17T01:50:29.377Z,79.64
2023-04-17T01:52:57.731Z,79.56
2023-04-17T01:55:26.106Z,79.41
2023-04-17T01:57:55.828Z,79.90
2023-04-17T02:00:24.679Z,79.27
2023-04-17T02:02:54.484Z,79.08
2023-04-17T02:05:24.667Z,79.52
2023-04-17T02:07:53.061Z,79.09
2023-04-17T02:10:21.432Z,79.17
2023-04-17T02:12:49.986Z,79.95
2023-04-17T02:15:20.017Z,79.58
2023-04-17T02:17:48.497Z,78.63
2023-04-17T02:20:17.027Z,78.56
2023-04-17T02:22:45.540Z,79.25
2023-04-17T02:25:13.926Z,79.66
2023-04-17T02:27:42.400Z,79.71
2023-04-17T02:30:12.122Z,79.61
2023-04-17T02:32:42.720Z,79.93
2023-04-17T02:35:11.548Z,79.92
2023-04-17T02:37:40.108Z,79.85
2023-04-17T02:40:10.405Z,79.48
2023-04-17T02:42:39.505Z,79.87
2023-04-17T02:45:09.935Z,79.44
2023-04-17T02:47:38.567Z,79.91
2023-04-17T02:50:10.321Z,79.25
2023-04-17T02:52:47.047Z,80.83
2023-04-17T02:55:15.538Z,79.63
2023-04-17T02:57:44.709Z,78.76
2023-04-17T03:00:15.169Z,79.35
2023-04-17T03:02:44.063Z,78.18
2023-04-17T03:05:14.974Z,78.55
2023-04-17T03:07:43.557Z,77.81
2023-04-17T03:10:12.378Z,77.89
2023-04-17T03:12:40.902Z,78.28
2023-04-17T03:15:10.667Z,77.55
2023-04-17T03:17:40.176Z,78.39
2023-04-17T03:20:10.269Z,79.06
2023-04-17T03:22:40.241Z,79.69
2023-04-17T03:25:10.319Z,79.38
2023-04-17T03:27:45.931Z,79.04
2023-04-17T03:30:15.750Z,79.22
2023-04-17T03:32:48.279Z,79.19
2023-04-17T03:35:16.888Z,78.25
2023-04-17T03:37:46.694Z,78.48
2023-04-17T03:40:15.416Z,79.83
2023-04-17T03:42:46.018Z,79.97
2023-04-17T03:45:14.828Z,78.55
2023-04-17T03:47:43.333Z,79.23
2023-04-17T03:50:12.614Z,79.57
2023-04-17T03:52:48.963Z,79.38
2023-04-17T03:55:18.038Z,79.67
2023-04-17T03:57:49.900Z,79.39
2023-04-17T04:00:21.954Z,80.14
2023-04-17T04:02:58.424Z,79.78
2023-04-17T04:05:36.597Z,79.66
2023-04-17T04:08:07.093Z,79.94
2023-04-17T04:10:44.247Z,79.90
2023-04-17T04:13:15.665Z,80.24
2023-04-17T04:15:49.930Z,80.30
2023-04-17T04:18:21.096Z,80.18
2023-04-17T04:20:50.387Z,80.17
2023-04-17T04:23:28.146Z,80.88
2023-04-17T04:25:57.983Z,80.21
2023-04-17T04:28:34.740Z,80.98
2023-04-17T04:31:04.187Z,80.90
2023-04-17T04:33:38.088Z,80.34
2023-04-17T04:36:07.122Z,80.90
2023-04-17T04:38:38.510Z,80.77
2023-04-17T04:41:20.077Z,80.55
2023-04-17T04:43:48.531Z,81.35
2023-04-17T04:46:17.166Z,80.73
2023-04-17T04:48:49.044Z,81.32
2023-04-17T04:51:18.942Z,81.31
2023-04-17T04:53:49.747Z,81.01
2023-04-17T04:56:19.216Z,81.37
2023-04-17T04:58:50.049Z,81.59
2023-04-17T05:01:19.074Z,80.77
2023-04-17T05:03:48.523Z,81.04
2023-04-17T05:06:24.045Z,81.55
2023-04-17T05:08:59.262Z,80.91
2023-04-17T05:11:27.644Z,80.46
2023-04-17T05:13:55.992Z,80.44
2023-04-17T05:16:31.010Z,81.01
2023-04-17T05:19:00.207Z,80.31
2023-04-17T05:21:51.751Z,81.15
2023-04-17T05:24:23.320Z,80.85
2023-04-17T05:26:53.549Z,81.57
2023-04-17T05:29:21.962Z,80.56
2023-04-17T05:31:50.534Z,80.79
2023-04-17T05:34:39.254Z,80.43
2023-04-17T05:37:08.196Z,80.89
2023-04-17T05:39:38.048Z,81.48
2023-04-17T05:42:06.653Z,81.20
2023-04-17T05:44:35.358Z,80.97
2023-04-17T05:47:04.673Z,80.84
2023-04-17T05:49:33.009Z,80.82
2023-04-17T05:52:01.516Z,81.25
2023-04-17T05:54:30.370Z,80.73
2023-04-17T05:57:01.072Z,80.40
2023-04-17T05:59:29.656Z,80.12
2023-04-17T06:01:59.587Z,79.41
2023-04-17T06:04:29.610Z,78.69
2023-04-17T06:06:58.183Z,77.96
2023-04-17T06:09:27.429Z,78.32
2023-04-17T06:11:55.852Z,77.70
2023-04-17T06:14:25.696Z,77.66
2023-04-17T06:16:54.551Z,76.63
2023-04-17T06:19:24.060Z,76.19
2023-04-17T06:21:52.602Z,77.10
2023-04-17T06:24:21.350Z,76.64
2023-04-17T06:26:49.805Z,77.38
2023-04-17T06:29:18.246Z,77.44
2023-04-17T06:31:48.246Z,76.75
2023-04-17T06:34:19.755Z,77.63
2023-04-17T06:36:49.228Z,76.56
2023-04-17T06:39:19.262Z,77.23
2023-04-17T06:41:48.601Z,77.08
2023-04-17T06:44:25.263Z,77.21
2023-04-17T06:47:00.476Z,77.21
2023-04-17T06:49:30.305Z,76.94
2023-04-17T06:51:58.738Z,77.15
2023-04-17T06:54:27.680Z,77.30
2023-04-17T06:56:56.717Z,77.50
2023-04-17T06:59:25.132Z,77.20
2023-04-17T07:01:53.645Z,77.66
2023-04-17T07:04:23.530Z,77.04
2023-04-17T07:06:52.236Z,77.26
2023-04-17T07:09:20.671Z,76.39
2023-04-17T07:11:49.156Z,77.00
2023-04-17T07:14:17.638Z,75.84
2023-04-17T07:16:46.156Z,75.15
2023-04-17T07:19:14.876Z,75.72
2023-04-17T07:21:44.715Z,75.76
2023-04-17T07:24:13.137Z,75.41
2023-04-17T07:26:43.306Z,75.80
2023-04-17T07:29:11.922Z,76.22
2023-04-17T07:31:40.449Z,75.55
2023-04-17T07:34:08.845Z,75.11
2023-04-17T07:36:37.427Z,75.81
2023-04-17T07:39:08.074Z,76.02
2023-04-17T07:41:36.488Z,75.15
2023-04-17T07:44:05.823Z,75.37
2023-04-17T07:46:34.310Z,75.57
2023-04-17T07:49:02.827Z,74.86
2023-04-17T07:51:32.287Z,75.41
2023-04-17T07:54:01.441Z,75.22
2023-04-17T07:56:31.920Z,75.43
2023-04-17T07:59:00.357Z,75.00
2023-04-17T08:01:28.888Z,75.00
2023-04-17T08:03:58.467Z,74.80
2023-04-17T08:06:27.397Z,75.09
2023-04-17T08:08:55.806Z,74.79
2023-04-17T08:11:24.704Z,74.75
2023-04-17T08:13:56.320Z,74.90
2023-04-17T08:16:25.934Z,74.35
2023-04-17T08:18:54.893Z,74.49
2023-04-17T08:21:23.502Z,74.55
2023-04-17T08:23:52.444Z,74.66
2023-04-17T08:26:20.863Z,74.11
2023-04-17T08:28:49.402Z,74.25
2023-04-17T08:31:19.122Z,74.05
2023-04-17T08:33:47.552Z,74.45
2023-04-17T08:36:16.048Z,74.57
2023-04-17T08:38:45.170Z,74.59
2023-04-17T08:41:21.571Z,75.34
2023-04-17T08:43:51.287Z,74.69
2023-04-17T08:46:23.422Z,75.00
2023-04-17T08:48:52.325Z,75.02
2023-04-17T08:51:21.068Z,74.82
2023-04-17T08:53:49.454Z,75.80
2023-04-17T08:56:17.845Z,74.14
2023-04-17T08:58:46.726Z,74.08
2023-04-17T09:01:17.640Z,73.84
2023-04-17T09:03:51.845Z,72.18
2023-04-17T09:06:20.373Z,72.35
2023-04-17T09:09:00.413Z,72.06
2023-04-17T09:11:29.408Z,72.79
2023-04-17T09:13:57.893Z,72.05
2023-04-17T09:16:26.380Z,71.63
2023-04-17T09:19:06.854Z,71.50
2023-04-17T09:21:35.360Z,71.43
2023-04-17T09:24:05.452Z,70.44
2023-04-17T09:26:34.122Z,70.61
2023-04-17T09:29:07.853Z,70.29
2023-04-17T09:31:37.613Z,68.05
2023-04-17T09:34:09.597Z,67.59
2023-04-17T09:36:40.072Z,66.11
2023-04-17T09:39:20.433Z,64.46
2023-04-17T09:41:49.004Z,65.04
2023-04-17T09:44:27.941Z,65.49
2023-04-17T09:46:56.970Z,64.06
2023-04-17T09:49:34.932Z,65.61
2023-04-17T09:52:04.313Z,64.24
2023-04-17T09:54:37.846Z,65.57
2023-04-17T09:57:09.492Z,65.33
2023-04-17T09:59:41.277Z,63.24
2023-04-17T10:02:11.717Z,63.88
2023-04-17T10:04:43.172Z,64.20
2023-04-17T10:07:12.746Z,63.75
2023-04-17T10:09:42.811Z,63.60
2023-04-17T10:12:16.850Z,64.11
2023-04-17T10:14:48.846Z,63.44
2023-04-17T10:17:31.789Z,62.79
2023-04-17T10:20:36.593Z,62.76
2023-04-17T10:23:34.610Z,62.83
2023-04-17T10:26:45.832Z,63.14
2023-04-17T10:29:14.424Z,62.22
2023-04-17T10:32:27.793Z,61.70
2023-04-17T10:34:58.257Z,61.29
2023-04-17T10:38:07.888Z,61.98
2023-04-17T10:40:37.730Z,59.45
2023-04-17T10:43:12.329Z,59.16
2023-04-17T10:45:58.583Z,58.15
2023-04-17T10:48:35.103Z,58.51
2023-04-17T10:51:43.709Z,57.48
2023-04-17T10:54:15.665Z,58.21
2023-04-17T10:56:48.383Z,58.44
2023-04-17T10:59:18.186Z,59.18
2023-04-17T11:02:04.379Z,59.34
2023-04-17T11:04:34.543Z,59.53
2023-04-17T11:07:03.186Z,58.64
2023-04-17T11:09:33.074Z,58.43
2023-04-17T11:12:02.937Z,58.50
2023-04-17T11:14:32.287Z,58.28
2023-04-17T11:17:02.254Z,58.68
2023-04-17T11:19:30.888Z,57.87
2023-04-17T11:22:01.489Z,56.71
2023-04-17T11:24:32.765Z,52.83
2023-04-17T11:27:03.527Z,54.21
2023-04-17T11:29:32.321Z,53.96
2023-04-17T11:32:01.486Z,54.52
2023-04-17T11:34:30.445Z,54.78
2023-04-17T11:37:01.697Z,55.83
2023-04-17T11:39:33.708Z,54.71
2023-04-17T11:42:03.855Z,54.44
2023-04-17T11:44:32.505Z,54.58
2023-04-17T11:47:01.208Z,54.83
2023-04-17T11:49:32.237Z,55.14
2023-04-17T11:52:02.472Z,55.12
2023-04-17T11:54:33.221Z,55.46
2023-04-17T11:57:03.638Z,55.60
2023-04-17T11:59:32.971Z,55.64
2023-04-17T12:02:02.225Z,56.19
2023-04-17T12:04:34.101Z,55.98
2023-04-17T12:07:03.808Z,55.87
2023-04-17T12:09:34.167Z,55.44
2023-04-17T12:12:05.910Z,56.64
2023-04-17T12:14:34.665Z,56.13
2023-04-17T12:17:03.188Z,56.28
2023-04-17T12:19:32.014Z,56.31
2023-04-17T12:22:00.858Z,56.56
2023-04-17T12:24:29.274Z,56.70
2023-04-17T12:27:01.866Z,55.86
2023-04-17T12:29:43.165Z,55.50
2023-04-17T12:32:12.905Z,55.28
2023-04-17T12:34:41.578Z,54.89
2023-04-17T12:37:10.201Z,54.30
2023-04-17T12:39:38.590Z,54.66
2023-04-17T12:42:08.443Z,54.26
2023-04-17T12:44:36.778Z,54.60
2023-04-17T12:47:05.369Z,54.09
2023-04-17T12:49:33.814Z,54.40
2023-04-17T12:52:03.888Z,54.80
2023-04-17T12:54:33.069Z,53.81
2023-04-17T12:57:02.776Z,53.85
2023-04-17T12:59:32.694Z,53.40
2023-04-17T13:02:01.564Z,53.42
2023-04-17T13:04:30.209Z,53.04
2023-04-17T13:06:59.077Z,53.33
2023-04-17T13:09:27.459Z,53.24
2023-04-17T13:11:55.795Z,52.90
2023-04-17T13:14:24.474Z,52.61
2023-04-17T13:16:54.221Z,53.17
2023-04-17T13:19:22.695Z,51.73
2023-04-17T13:21:52.843Z,50.29
2023-04-17T13:24:21.296Z,49.53
2023-04-17T13:26:49.763Z,50.35
2023-04-17T13:29:19.514Z,51.08
2023-04-17T13:31:48.326Z,51.13
2023-04-17T13:34:18.369Z,51.94
2023-04-17T13:36:46.845Z,52.54
2023-04-17T13:39:15.389Z,52.70
2023-04-17T13:41:43.824Z,52.61
2023-04-17T13:44:12.520Z,53.32
2023-04-17T13:46:41.681Z,53.95
2023-04-17T13:49:10.262Z,54.02
2023-04-17T13:51:40.192Z,54.09
2023-04-17T13:54:10.041Z,54.34
2023-04-17T13:56:38.472Z,54.74
2023-04-17T13:59:07.430Z,54.66
2023-04-17T14:01:35.864Z,54.59
2023-04-17T14:04:06.281Z,54.88
2023-04-17T14:06:35.633Z,53.95
2023-04-17T14:09:05.857Z,53.78
2023-04-17T14:11:34.182Z,53.37
2023-04-17T14:14:02.576Z,52.28
2023-04-17T14:16:31.316Z,52.63
2023-04-17T14:19:13.426Z,51.40
2023-04-17T14:21:43.275Z,51.28
2023-04-17T14:24:12.994Z,51.51
2023-04-17T14:26:41.319Z,51.03
2023-04-17T14:29:10.675Z,52.17
2023-04-17T14:31:39.481Z,51.43
2023-04-17T14:34:08.274Z,51.16
2023-04-17T14:36:36.740Z,51.35
2023-04-17T14:39:05.415Z,51.69
2023-04-17T14:41:35.221Z,51.80
2023-04-17T14:44:03.710Z,51.12
2023-04-17T14:46:32.180Z,51.11
2023-04-17T14:49:00.671Z,50.74
2023-04-17T14:51:30.593Z,49.89
2023-04-17T14:53:59.326Z,48.84
2023-04-17T14:56:27.862Z,48.01
2023-04-17T14:58:58.318Z,48.44
2023-04-17T15:01:26.859Z,48.24
2023-04-17T15:03:57.209Z,47.97
2023-04-17T15:06:26.275Z,47.79
2023-04-17T15:08:54.838Z,47.58
2023-04-17T15:11:23.159Z,46.67
2023-04-17T15:13:51.789Z,46.28
2023-04-17T15:16:21.609Z,46.76
2023-04-17T15:18:51.144Z,46.78
2023-04-17T15:21:19.908Z,45.93
2023-04-17T15:23:48.296Z,44.05
2023-04-17T15:26:16.771Z,43.88
2023-04-17T15:28:45.169Z,43.22
2023-04-17T15:31:13.523Z,43.65
2023-04-17T15:33:43.330Z,43.47
2023-04-17T15:36:11.696Z,43.73
2023-04-17T15:38:40.017Z,44.02
2023-04-17T15:41:10.151Z,44.55
2023-04-17T15:43:39.754Z,45.65
2023-04-17T15:46:08.146Z,45.80
2023-04-17T15:48:36.518Z,46.12
2023-04-17T15:51:07.121Z,45.65
2023-04-17T15:53:35.474Z,46.29
2023-04-17T15:56:03.833Z,45.61
2023-04-17T15:58:32.766Z,45.63
2023-04-17T16:01:01.803Z,45.39
2023-04-17T16:03:30.226Z,45.81
2023-04-17T16:05:58.676Z,44.91
2023-04-17T16:08:28.402Z,44.59
2023-04-17T16:10:57.701Z,42.81
2023-04-17T16:13:26.078Z,41.75
2023-04-17T16:15:54.492Z,41.81
2023-04-17T16:18:22.818Z,41.06
2023-04-17T16:20:51.083Z,39.55
2023-04-17T16:23:19.404Z,38.15
2023-04-17T16:25:50.232Z,38.76
2023-04-17T16:28:18.623Z,38.62
2023-04-17T16:30:47.807Z,38.61
2023-04-17T16:33:16.155Z,39.45
2023-04-17T16:35:44.494Z,39.24
2023-04-17T16:38:12.945Z,39.88
2023-04-17T16:40:41.378Z,40.11
2023-04-17T16:43:11.388Z,40.10
2023-04-17T16:45:39.704Z,40.67
2023-04-17T16:48:09.241Z,40.93
2023-04-17T16:50:37.722Z,41.22
2023-04-17T16:53:06.140Z,41.79
2023-04-17T16:55:34.553Z,41.74
2023-04-17T16:58:04.424Z,41.94
2023-04-17T17:00:34.537Z,41.98
2023-04-17T17:03:03.207Z,41.59
2023-04-17T17:05:31.701Z,42.16
2023-04-17T17:08:00.136Z,41.47
2023-04-17T17:10:28.612Z,41.98
2023-04-17T17:12:56.935Z,42.14
2023-04-17T17:15:25.578Z,42.26
2023-04-17T17:17:55.380Z,42.56
2023-04-17T17:20:23.745Z,42.65
2023-04-17T17:22:52.097Z,42.57
2023-04-17T17:25:20.619Z,42.79
2023-04-17T17:27:49.118Z,43.96
2023-04-17T17:30:17.840Z,43.34
2023-04-17T17:32:46.270Z,43.18
2023-04-17T17:35:16.031Z,43.48
2023-04-17T17:37:44.425Z,44.02
2023-04-17T17:40:13.291Z,44.20
2023-04-17T17:42:41.623Z,44.68
2023-04-17T17:45:11.355Z,44.81
2023-04-17T17:47:40.247Z,44.91
2023-04-17T17:50:09.988Z,45.06
2023-04-17T17:52:39.708Z,45.09
2023-04-17T17:55:08.866Z,45.22
2023-04-17T17:57:48.298Z,45.64
2023-04-17T18:00:18.400Z,45.46
2023-04-17T18:02:46.893Z,46.29
2023-04-17T18:05:15.337Z,46.06
2023-04-17T18:07:45.242Z,47.07
2023-04-17T18:10:13.987Z,47.75
2023-04-17T18:12:42.461Z,46.99
2023-04-17T18:15:11.991Z,48.08
2023-04-17T18:17:40.395Z,47.98
2023-04-17T18:20:10.525Z,47.86
2023-04-17T18:22:39.021Z,48.39
2023-04-17T18:25:10.299Z,48.01
2023-04-17T18:27:38.668Z,48.31
2023-04-17T18:30:09.436Z,47.93
2023-04-17T18:32:38.046Z,48.27
2023-04-17T18:35:07.895Z,48.22
2023-04-17T18:37:36.329Z,48.38
2023-04-17T18:40:07.229Z,47.12
2023-04-17T18:42:36.974Z,47.03
2023-04-17T18:45:06.457Z,47.37
2023-04-17T18:47:34.870Z,47.24
2023-04-17T18:50:04.735Z,47.44
2023-04-17T18:52:33.241Z,47.45
2023-04-17T18:55:02.701Z,47.46
2023-04-17T18:57:31.054Z,47.63
2023-04-17T19:00:00.755Z,47.68
2023-04-17T19:02:29.180Z,47.90
2023-04-17T19:04:57.511Z,47.79
2023-04-17T19:07:26.060Z,48.26
2023-04-17T19:09:54.463Z,48.18
2023-04-17T19:12:22.856Z,48.03
2023-04-17T19:14:51.899Z,48.12
2023-04-17T19:17:21.854Z,48.18
2023-04-17T19:19:50.164Z,48.35
2023-04-17T19:22:18.899Z,49.06
2023-04-17T19:24:49.917Z,48.31
2023-04-17T19:27:18.498Z,48.14
2023-04-17T19:29:47.679Z,49.15
2023-04-17T19:32:16.969Z,48.64
2023-04-17T19:34:46.703Z,49.21
2023-04-17T19:37:15.095Z,48.33
2023-04-17T19:39:43.435Z,48.65
2023-04-17T19:42:11.925Z,48.34
2023-04-17T19:44:40.268Z,47.31
2023-04-17T19:47:08.609Z,47.74
2023-04-17T19:49:36.965Z,47.52
2023-04-17T19:52:06.805Z,47.44
2023-04-17T19:54:35.209Z,46.99
2023-04-17T19:57:03.711Z,47.31
2023-04-17T19:59:32.034Z,47.27
2023-04-17T20:02:00.505Z,47.40
2023-04-17T20:04:29.199Z,47.45
2023-04-17T20:06:58.425Z,47.39
2023-04-17T20:09:28.143Z,47.29
2023-04-17T20:11:56.732Z,47.27
2023-04-17T20:14:25.867Z,47.52
2023-04-17T20:16:54.398Z,48.08
2023-04-17T20:19:22.873Z,47.50
2023-04-17T20:21:51.469Z,48.47
2023-04-17T20:24:20.079Z,48.16
2023-04-17T20:26:50.114Z,48.26
2023-04-17T20:29:18.685Z,48.59
2023-04-17T20:31:47.190Z,48.99
2023-04-17T20:34:15.886Z,48.49
2023-04-17T20:36:44.509Z,48.11
2023-04-17T20:39:13.155Z,48.11
2023-04-17T20:41:42.153Z,47.93
2023-04-17T20:44:12.435Z,47.79
2023-04-17T20:46:41.045Z,48.58
2023-04-17T20:49:09.772Z,47.95
2023-04-17T20:51:38.414Z,48.44
2023-04-17T20:54:07.030Z,48.67
2023-04-17T20:56:35.485Z,48.96
2023-04-17T20:59:04.071Z,49.21
2023-04-17T21:01:33.898Z,48.87
2023-04-17T21:04:02.521Z,49.29
2023-04-17T21:06:31.247Z,49.54
2023-04-17T21:08:59.804Z,49.71
2023-04-17T21:11:28.234Z,50.14
2023-04-17T21:13:58.520Z,50.60
2023-04-17T21:16:27.028Z,49.69
2023-04-17T21:18:57.002Z,50.11
2023-04-17T21:21:26.234Z,50.50
2023-04-17T21:23:54.797Z,50.12
2023-04-17T21:26:23.193Z,50.32
2023-04-17T21:28:51.690Z,50.34
2023-04-17T21:31:20.269Z,50.56
2023-04-17T21:33:48.889Z,50.18
2023-04-17T21:36:19.568Z,51.09
2023-04-17T21:38:48.197Z,50.85
2023-04-17T21:41:16.774Z,50.64
2023-04-17T21:43:45.189Z,50.71
2023-04-17T21:46:13.690Z,50.66
2023-04-17T21:48:42.172Z,50.66
2023-04-17T21:51:10.653Z,51.39
2023-04-17T21:53:40.479Z,51.09
2023-04-17T21:56:10.207Z,51.31
2023-04-17T21:58:38.669Z,51.57
2023-04-17T22:01:07.348Z,51.13
2023-04-17T22:03:36.278Z,51.46
2023-04-17T22:06:06.018Z,51.51
2023-04-17T22:08:34.435Z,51.47
2023-04-17T22:11:05.379Z,51.33
2023-04-17T22:13:33.942Z,51.45
2023-04-17T22:16:02.488Z,52.06
2023-04-17T22:18:31.270Z,52.05
2023-04-17T22:20:59.649Z,51.74
2023-04-17T22:23:28.143Z,51.46
2023-04-17T22:25:56.589Z,51.56
2023-04-17T22:28:26.791Z,52.89
2023-04-17T22:30:55.737Z,53.52
2023-04-17T22:33:24.219Z,52.46
2023-04-17T22:35:52.758Z,53.80
2023-04-17T22:38:21.596Z,53.01
2023-04-17T22:40:50.154Z,53.24
2023-04-17T22:43:18.593Z,53.69
2023-04-17T22:45:48.386Z,53.56
2023-04-17T22:48:17.802Z,53.81
2023-04-17T22:50:46.635Z,53.67
2023-04-17T22:53:15.083Z,54.53
2023-04-17T22:55:43.549Z,54.53
2023-04-17T22:58:11.926Z,54.56
2023-04-17T23:00:40.354Z,54.94
2023-04-17T23:03:10.169Z,55.65
2023-04-17T23:05:38.743Z,55.28
2023-04-17T23:08:07.141Z,55.43
2023-04-17T23:10:35.529Z,55.61
2023-04-17T23:13:04.369Z,55.88
2023-04-17T23:15:34.066Z,55.14
2023-04-17T23:18:02.474Z,55.94
2023-04-17T23:20:32.293Z,55.05
2023-04-17T23:23:00.804Z,55.59
2023-04-17T23:25:30.221Z,55.04
2023-04-17T23:27:58.735Z,55.20
2023-04-17T23:30:27.269Z,54.27
2023-04-17T23:32:56.829Z,54.74
2023-04-17T23:35:26.568Z,54.73
2023-04-17T23:37:56.265Z,54.00
2023-04-17T23:40:25.807Z,53.68
2023-04-17T23:42:54.194Z,54.51
2023-04-17T23:45:22.782Z,53.63
2023-04-17T23:47:53.066Z,53.73
2023-04-17T23:50:21.741Z,53.92
2023-04-17T23:52:50.344Z,54.19
2023-04-17T23:55:20.066Z,54.07
2023-04-17T23:57:50.434Z,54.21
